This is the latest recevied weather packets stored in our database for station/object K2ATL. If no packets are shown the sender has not sent any weather packets the latest 10 day(s).
| Time | Temp. | Humidity | Pressure | Rain* | Wind** | Luminosity | Snow |
|---|---|---|---|---|---|---|---|
| 1777896070 | 11.11° C | 61% | 1102.8 hPa | 0 mm | - | 35 W/m² | - |
| 1777895768 | 11.11° C | 60% | 1102.7 hPa | 0 mm | - | 33 W/m² | - |
| 1777895464 | 11.11° C | 60% | 1102.7 hPa | 0 mm | - | 32 W/m² | - |
| 1777895162 | 11.11° C | 61% | 1102.7 hPa | 0 mm | - | 30 W/m² | - |
| 1777894859 | 11.11° C | 61% | 1102.6 hPa | 0 mm | - | 28 W/m² | - |
| 1777894556 | 10.56° C | 60% | 1102.6 hPa | 0 mm | - | 27 W/m² | - |
| 1777894254 | 10.56° C | 60% | 1102.6 hPa | 0 mm | - | 26 W/m² | - |
| 1777893950 | 11.11° C | 59% | 1102.6 hPa | 0 mm | - | 24 W/m² | - |
| 1777893647 | 11.67° C | 56% | 1102.5 hPa | 0 mm | - | 22 W/m² | - |
| 1777893343 | 11.67° C | 53% | 1102.4 hPa | 0 mm | - | 19 W/m² | - |
| 1777893039 | 11.67° C | 54% | 1102.4 hPa | 0 mm | - | 17 W/m² | - |
| 1777892737 | 11.67° C | 54% | 1102.3 hPa | 0 mm | - | 13 W/m² | - |
| 1777892432 | 11.67° C | 56% | 1102.2 hPa | 0 mm | - | 10 W/m² | - |
| 1777892129 | 12.78° C | 52% | 1102.3 hPa | 0 mm | - | 8 W/m² | - |
| 1777891826 | 12.22° C | 53% | 1102.3 hPa | 0 mm | - | 5 W/m² | - |
| 1777891523 | 12.22° C | 52% | 1102.1 hPa | 0 mm | - | 3 W/m² | - |
| 1777891220 | 12.78° C | 52% | 1102 hPa | 0 mm | - | 1 W/m² | - |
| 1777890919 | 12.78° C | 52% | 1102.4 hPa | 0 mm | - | 1 W/m² | - |
| 1777890615 | 12.78° C | 52% | 1102.1 hPa | 0 mm | - | 0 W/m² | - |
| 1777890310 | 12.22° C | 53% | 1102.2 hPa | 0 mm | - | 0 W/m² | - |
| 1777890007 | 11.67° C | 54% | 1102 hPa | 0 mm | - | 0 W/m² | - |
| 1777889705 | 11.67° C | 54% | 1102.1 hPa | 0 mm | - | 0 W/m² | - |
| 1777889403 | 11.67° C | 54% | 1102.3 hPa | 0 mm | - | 0 W/m² | - |
| 1777889100 | 12.22° C | 53% | 1102.3 hPa | 0 mm | - | 0 W/m² | - |
| 1777888797 | 12.22° C | 53% | 1102.2 hPa | 0 mm | - | 0 W/m² | - |
* Rain latest hour (hover to see other rain measurements)
** Current wind speed in m/s (hover to see current wind gust speed)